createdAt,value
2022-12-29T00:01:56.410Z,9.20
2022-12-29T00:04:23.173Z,9.20
2022-12-29T00:06:49.968Z,9.20
2022-12-29T00:09:16.659Z,9.30
2022-12-29T00:11:43.409Z,9.30
2022-12-29T00:14:28.855Z,9.30
2022-12-29T00:16:55.598Z,9.30
2022-12-29T00:19:40.805Z,9.30
2022-12-29T00:22:26.486Z,9.20
2022-12-29T00:25:11.729Z,9.30
2022-12-29T00:28:01.582Z,9.30
2022-12-29T00:30:50.839Z,9.20
2022-12-29T00:33:36.543Z,9.20
2022-12-29T00:36:03.228Z,9.20
2022-12-29T00:38:48.535Z,9.20
2022-12-29T00:41:33.791Z,9.20
2022-12-29T00:44:07.739Z,9.20
2022-12-29T00:46:34.465Z,9.20
2022-12-29T00:49:19.721Z,9.20
2022-12-29T00:51:46.423Z,9.10
2022-12-29T00:54:13.131Z,9.10
2022-12-29T00:56:41.023Z,9.10
2022-12-29T00:59:07.729Z,9.00
2022-12-29T01:01:34.567Z,9.00
2022-12-29T01:04:04.015Z,9.00
2022-12-29T01:06:31.388Z,9.00
2022-12-29T01:09:16.990Z,9.00
2022-12-29T01:11:43.674Z,9.00
2022-12-29T01:14:10.804Z,8.90
2022-12-29T01:16:37.872Z,9.00
2022-12-29T01:19:04.668Z,8.90
2022-12-29T01:21:31.388Z,8.90
2022-12-29T01:23:58.187Z,8.90
2022-12-29T01:26:24.851Z,8.90
2022-12-29T01:28:52.362Z,8.90
2022-12-29T01:31:19.117Z,8.80
2022-12-29T01:33:45.907Z,8.80
2022-12-29T01:36:12.642Z,8.80
2022-12-29T01:38:39.361Z,8.80
2022-12-29T01:41:06.081Z,8.80
2022-12-29T01:43:32.790Z,8.80
2022-12-29T01:45:59.506Z,8.80
2022-12-29T01:48:26.218Z,8.80
2022-12-29T01:50:52.991Z,8.70
2022-12-29T01:53:19.841Z,8.70
2022-12-29T01:55:46.537Z,8.60
2022-12-29T01:58:13.329Z,8.60
2022-12-29T02:00:40.120Z,8.60
2022-12-29T02:03:06.972Z,8.50
2022-12-29T02:05:34.564Z,8.60
2022-12-29T02:08:01.328Z,8.50
2022-12-29T02:10:28.124Z,8.50
2022-12-29T02:12:56.345Z,8.60
2022-12-29T02:15:24.095Z,8.50
2022-12-29T02:17:50.834Z,8.50
2022-12-29T02:20:17.615Z,8.50
2022-12-29T02:22:45.188Z,8.50
2022-12-29T02:25:11.911Z,8.50
2022-12-29T02:27:38.762Z,8.50
2022-12-29T02:30:05.490Z,8.50
2022-12-29T02:32:32.411Z,8.50
2022-12-29T02:35:00.586Z,8.50
2022-12-29T02:37:28.163Z,8.50
2022-12-29T02:39:54.953Z,8.50
2022-12-29T02:42:21.733Z,8.50
2022-12-29T02:44:48.453Z,8.50
2022-12-29T02:47:15.321Z,8.50
2022-12-29T02:49:44.306Z,8.50
2022-12-29T02:52:11.086Z,8.60
2022-12-29T02:54:44.821Z,8.70
2022-12-29T02:57:13.103Z,8.70
2022-12-29T02:59:40.837Z,8.70
2022-12-29T03:02:21.288Z,8.70
2022-12-29T03:04:49.971Z,8.70
2022-12-29T03:07:16.705Z,8.70
2022-12-29T03:09:43.699Z,8.70
2022-12-29T03:12:10.595Z,8.60
2022-12-29T03:14:58.373Z,8.70
2022-12-29T03:17:25.117Z,8.60
2022-12-29T03:19:52.531Z,8.70
2022-12-29T03:22:28.700Z,8.60
2022-12-29T03:25:00.757Z,8.70
2022-12-29T03:27:27.767Z,8.70
2022-12-29T03:29:54.654Z,8.80
2022-12-29T03:32:21.420Z,8.80
2022-12-29T03:34:48.198Z,8.90
2022-12-29T03:37:15.617Z,9.00
2022-12-29T03:39:42.846Z,9.00
2022-12-29T03:42:10.268Z,9.10
2022-12-29T03:44:37.386Z,9.10
2022-12-29T03:47:04.537Z,9.10
2022-12-29T03:49:31.769Z,9.20
2022-12-29T03:51:58.480Z,9.20
2022-12-29T03:54:26.188Z,9.20
2022-12-29T03:56:53.259Z,9.20
2022-12-29T03:59:30.573Z,9.20
2022-12-29T04:01:57.390Z,9.20
2022-12-29T04:04:24.850Z,9.20
2022-12-29T04:06:51.787Z,9.30
2022-12-29T04:09:19.106Z,9.30
2022-12-29T04:11:48.215Z,9.30
2022-12-29T04:14:14.993Z,9.30
2022-12-29T04:16:41.768Z,9.40
2022-12-29T04:19:08.844Z,9.40
2022-12-29T04:21:37.028Z,9.40
2022-12-29T04:24:07.520Z,9.30
2022-12-29T04:26:38.793Z,9.30
2022-12-29T04:29:23.913Z,9.20
2022-12-29T04:32:09.427Z,9.20
2022-12-29T04:34:41.126Z,9.10
2022-12-29T04:37:08.039Z,9.10
2022-12-29T04:39:35.383Z,9.00
2022-12-29T04:42:03.513Z,9.00
2022-12-29T04:44:30.313Z,9.00
2022-12-29T04:47:15.607Z,8.90
2022-12-29T04:50:11.275Z,8.90
2022-12-29T04:52:51.019Z,9.00
2022-12-29T04:55:17.905Z,9.00
2022-12-29T04:57:45.467Z,9.00
2022-12-29T05:00:16.868Z,9.00
2022-12-29T05:02:43.769Z,9.00
2022-12-29T05:05:10.766Z,9.00
2022-12-29T05:07:41.738Z,9.00
2022-12-29T05:10:09.103Z,9.00
2022-12-29T05:12:35.876Z,9.00
2022-12-29T05:15:03.840Z,9.00
2022-12-29T05:17:31.221Z,9.10
2022-12-29T05:19:57.997Z,9.10
2022-12-29T05:22:25.174Z,9.00
2022-12-29T05:24:54.460Z,9.00
2022-12-29T05:27:21.248Z,9.00
2022-12-29T05:30:06.142Z,9.00
2022-12-29T05:32:32.985Z,9.00
2022-12-29T05:35:00.081Z,9.00
2022-12-29T05:37:27.084Z,8.90
2022-12-29T05:39:53.870Z,8.90
2022-12-29T05:42:20.695Z,8.90
2022-12-29T05:45:08.250Z,8.90
2022-12-29T05:47:53.617Z,8.90
2022-12-29T05:50:49.530Z,8.90
2022-12-29T05:53:18.435Z,8.90
2022-12-29T05:55:48.655Z,8.90
2022-12-29T05:58:16.794Z,8.90
2022-12-29T06:00:44.037Z,8.90
2022-12-29T06:03:11.573Z,9.00
2022-12-29T06:05:38.485Z,9.00
2022-12-29T06:08:05.229Z,9.00
2022-12-29T06:10:32.004Z,9.00
2022-12-29T06:13:04.850Z,9.10
2022-12-29T06:15:32.646Z,9.10
2022-12-29T06:18:00.676Z,9.10
2022-12-29T06:20:27.455Z,9.10
2022-12-29T06:22:54.265Z,9.00
2022-12-29T06:25:21.057Z,9.00
2022-12-29T06:27:48.292Z,8.90
2022-12-29T06:30:15.972Z,8.90
2022-12-29T06:32:43.647Z,8.90
2022-12-29T06:35:12.222Z,8.80
2022-12-29T06:37:44.930Z,8.80
2022-12-29T06:40:12.774Z,8.80
2022-12-29T06:42:59.721Z,8.70
2022-12-29T06:45:44.796Z,8.70
2022-12-29T06:48:11.611Z,8.70
2022-12-29T06:50:38.418Z,8.60
2022-12-29T06:53:05.152Z,8.60
2022-12-29T06:55:31.904Z,8.60
2022-12-29T06:57:58.657Z,8.50
2022-12-29T07:00:25.402Z,8.50
2022-12-29T07:02:52.286Z,8.50
2022-12-29T07:05:19.174Z,8.40
2022-12-29T07:07:45.905Z,8.40
2022-12-29T07:10:12.678Z,8.30
2022-12-29T07:12:39.399Z,8.30
2022-12-29T07:15:06.086Z,8.30
2022-12-29T07:17:32.743Z,8.30
2022-12-29T07:19:59.521Z,8.20
2022-12-29T07:22:26.267Z,8.20
2022-12-29T07:24:53.019Z,8.20
2022-12-29T07:27:19.812Z,8.20
2022-12-29T07:29:46.536Z,8.20
2022-12-29T07:32:13.430Z,8.10
2022-12-29T07:34:40.817Z,8.10
2022-12-29T07:37:07.507Z,8.10
2022-12-29T07:39:34.809Z,8.10
2022-12-29T07:42:05.180Z,8.00
2022-12-29T07:44:39.636Z,8.00
2022-12-29T07:47:16.756Z,8.00
2022-12-29T07:49:43.527Z,8.00
2022-12-29T07:52:10.198Z,8.00
2022-12-29T07:54:36.903Z,8.00
2022-12-29T07:57:03.625Z,8.00
2022-12-29T07:59:31.485Z,8.00
2022-12-29T08:01:58.312Z,8.00
2022-12-29T08:04:25.188Z,7.90
2022-12-29T08:06:51.897Z,7.90
2022-12-29T08:09:22.791Z,7.90
2022-12-29T08:11:54.074Z,7.90
2022-12-29T08:14:20.813Z,7.90
2022-12-29T08:16:47.559Z,7.90
2022-12-29T08:19:14.265Z,7.90
2022-12-29T08:21:41.004Z,7.90
2022-12-29T08:24:07.782Z,7.90
2022-12-29T08:26:34.483Z,7.90
2022-12-29T08:29:01.186Z,7.90
2022-12-29T08:31:27.962Z,7.80
2022-12-29T08:33:54.682Z,7.90
2022-12-29T08:36:21.646Z,7.80
2022-12-29T08:38:48.362Z,7.80
2022-12-29T08:41:15.130Z,7.80
2022-12-29T08:43:41.834Z,7.80
2022-12-29T08:46:08.660Z,7.80
2022-12-29T08:48:35.466Z,7.80
2022-12-29T08:51:02.253Z,7.80
2022-12-29T08:53:29.015Z,7.80
2022-12-29T08:56:00.669Z,7.90
2022-12-29T08:58:31.771Z,7.90
2022-12-29T09:00:58.911Z,7.90
2022-12-29T09:03:46.048Z,7.90
2022-12-29T09:06:12.362Z,7.90
2022-12-29T09:08:39.103Z,8.00
2022-12-29T09:11:05.814Z,8.00
2022-12-29T09:13:32.577Z,8.00
2022-12-29T09:15:59.418Z,8.00
2022-12-29T09:18:26.188Z,8.10
2022-12-29T09:20:52.891Z,8.10
2022-12-29T09:23:19.588Z,8.10
2022-12-29T09:25:46.333Z,8.10
2022-12-29T09:28:13.046Z,8.10
2022-12-29T09:30:40.414Z,8.10
2022-12-29T09:33:07.127Z,8.10
2022-12-29T09:35:33.863Z,8.10
2022-12-29T09:38:00.604Z,8.10
2022-12-29T09:40:27.444Z,8.10
2022-12-29T09:42:54.144Z,8.10
2022-12-29T09:45:20.882Z,8.10
2022-12-29T09:47:47.564Z,8.10
2022-12-29T09:50:14.358Z,8.20
2022-12-29T09:52:41.146Z,8.30
2022-12-29T09:55:13.871Z,8.30
2022-12-29T09:57:41.147Z,8.40
2022-12-29T10:00:07.813Z,8.50
2022-12-29T10:02:39.401Z,8.50
2022-12-29T10:05:06.177Z,8.50
2022-12-29T10:07:32.919Z,8.50
2022-12-29T10:10:02.403Z,8.50
2022-12-29T10:12:29.092Z,8.60
2022-12-29T10:14:55.841Z,8.70
2022-12-29T10:17:22.585Z,8.80
2022-12-29T10:19:49.302Z,8.80
2022-12-29T10:22:16.061Z,8.90
2022-12-29T10:24:42.720Z,8.90
2022-12-29T10:27:09.403Z,9.00
2022-12-29T10:29:36.118Z,9.00
2022-12-29T10:32:02.943Z,9.00
2022-12-29T10:34:29.832Z,8.90
2022-12-29T10:36:57.693Z,8.90
2022-12-29T10:39:24.483Z,8.90
2022-12-29T10:41:51.233Z,8.90
2022-12-29T10:44:18.111Z,8.90
2022-12-29T10:46:45.309Z,9.00
2022-12-29T10:49:15.405Z,9.00
2022-12-29T10:51:44.851Z,9.00
2022-12-29T10:54:11.515Z,9.00
2022-12-29T10:56:38.244Z,9.00
2022-12-29T10:59:05.001Z,9.00
2022-12-29T11:01:31.927Z,9.10
2022-12-29T11:04:00.216Z,9.10
2022-12-29T11:06:27.180Z,9.10
2022-12-29T11:08:53.926Z,9.10
2022-12-29T11:11:20.657Z,9.00
2022-12-29T11:13:47.489Z,9.00
2022-12-29T11:16:14.271Z,9.00
2022-12-29T11:18:41.067Z,8.90
2022-12-29T11:21:07.832Z,8.90
2022-12-29T11:23:34.605Z,8.90
2022-12-29T11:26:01.299Z,8.90
2022-12-29T11:28:31.653Z,8.90
2022-12-29T11:30:58.335Z,8.90
2022-12-29T11:33:25.005Z,8.90
2022-12-29T11:35:51.731Z,9.00
2022-12-29T11:38:18.472Z,9.00
2022-12-29T11:40:45.213Z,9.00
2022-12-29T11:43:11.936Z,9.00
2022-12-29T11:45:38.685Z,9.00
2022-12-29T11:48:05.574Z,9.00
2022-12-29T11:50:32.362Z,9.00
2022-12-29T11:52:59.081Z,9.00
2022-12-29T11:55:25.777Z,9.10
2022-12-29T11:57:52.470Z,9.10
2022-12-29T12:00:20.297Z,9.10
2022-12-29T12:02:47.122Z,9.20
2022-12-29T12:05:13.828Z,9.20
2022-12-29T12:07:40.560Z,9.20
2022-12-29T12:10:08.626Z,9.20
2022-12-29T12:12:35.753Z,9.20
2022-12-29T12:15:04.169Z,9.10
2022-12-29T12:17:50.703Z,9.10
2022-12-29T12:20:17.509Z,9.10
2022-12-29T12:22:44.167Z,9.10
2022-12-29T12:25:10.891Z,9.10
2022-12-29T12:27:41.122Z,9.10
2022-12-29T12:30:08.496Z,9.10
2022-12-29T12:32:35.724Z,9.10
2022-12-29T12:35:02.388Z,9.10
2022-12-29T12:37:29.109Z,9.10
2022-12-29T12:39:55.873Z,9.10
2022-12-29T12:42:22.632Z,9.10
2022-12-29T12:44:49.408Z,9.20
2022-12-29T12:47:16.217Z,9.20
2022-12-29T12:49:43.062Z,9.20
2022-12-29T12:52:09.886Z,9.20
2022-12-29T12:54:36.646Z,9.10
2022-12-29T12:57:03.376Z,9.10
2022-12-29T12:59:30.092Z,9.10
2022-12-29T13:01:56.898Z,9.10
2022-12-29T13:04:23.663Z,9.10
2022-12-29T13:06:50.423Z,9.20
2022-12-29T13:09:17.178Z,9.20
2022-12-29T13:11:43.980Z,9.20
2022-12-29T13:14:10.656Z,9.20
2022-12-29T13:16:37.423Z,9.30
2022-12-29T13:19:04.192Z,9.30
2022-12-29T13:21:30.902Z,9.30
2022-12-29T13:23:57.702Z,9.30
2022-12-29T13:26:24.426Z,9.40
2022-12-29T13:28:51.580Z,9.40
2022-12-29T13:31:18.437Z,9.40
2022-12-29T13:33:45.210Z,9.50
2022-12-29T13:36:11.906Z,9.50
2022-12-29T13:38:38.660Z,9.50
2022-12-29T13:41:05.350Z,9.60
2022-12-29T13:43:32.111Z,9.60
2022-12-29T13:45:58.813Z,9.70
2022-12-29T13:48:25.527Z,9.70
2022-12-29T13:50:53.406Z,9.80
2022-12-29T13:53:20.100Z,9.80
2022-12-29T13:55:46.937Z,9.70
2022-12-29T13:58:13.692Z,9.70
2022-12-29T14:00:40.437Z,9.60
2022-12-29T14:03:07.344Z,9.60
2022-12-29T14:05:34.476Z,9.50
2022-12-29T14:08:01.284Z,9.40
2022-12-29T14:10:28.165Z,9.40
2022-12-29T14:12:54.869Z,9.30
2022-12-29T14:15:21.615Z,9.40
2022-12-29T14:17:48.476Z,9.40
2022-12-29T14:20:15.237Z,9.40
2022-12-29T14:22:42.103Z,9.40
2022-12-29T14:25:08.843Z,9.40
2022-12-29T14:27:35.551Z,9.40
2022-12-29T14:30:02.262Z,9.30
2022-12-29T14:32:30.195Z,9.30
2022-12-29T14:34:57.088Z,9.30
2022-12-29T14:37:23.817Z,9.30
2022-12-29T14:39:50.809Z,9.20
2022-12-29T14:42:18.607Z,9.10
2022-12-29T14:44:45.423Z,9.20
2022-12-29T14:47:12.618Z,9.10
2022-12-29T14:49:39.333Z,9.10
2022-12-29T14:52:06.176Z,9.10
2022-12-29T14:54:32.889Z,9.00
2022-12-29T14:56:59.598Z,9.00
2022-12-29T14:59:26.369Z,9.00
2022-12-29T15:01:53.252Z,8.90
2022-12-29T15:04:20.088Z,8.90
2022-12-29T15:06:47.032Z,8.90
2022-12-29T15:09:15.599Z,8.90
2022-12-29T15:11:42.716Z,8.80
2022-12-29T15:14:09.424Z,8.80
2022-12-29T15:16:38.005Z,8.80
2022-12-29T15:19:06.253Z,8.80
2022-12-29T15:21:32.974Z,8.80
2022-12-29T15:23:59.723Z,8.70
2022-12-29T15:26:26.486Z,8.70
2022-12-29T15:28:53.181Z,8.70
2022-12-29T15:31:23.567Z,8.70
2022-12-29T15:33:54.907Z,8.70
2022-12-29T15:36:21.697Z,8.60
2022-12-29T15:38:48.416Z,8.60
2022-12-29T15:41:15.159Z,8.60
2022-12-29T15:43:46.728Z,8.50
2022-12-29T15:46:14.113Z,8.50
2022-12-29T15:48:40.827Z,8.50
2022-12-29T15:51:07.683Z,8.40
2022-12-29T15:53:34.618Z,8.40
2022-12-29T15:56:03.640Z,8.40
2022-12-29T15:58:30.857Z,8.40
2022-12-29T16:00:58.004Z,8.30
2022-12-29T16:03:24.930Z,8.40
2022-12-29T16:05:51.858Z,8.40
2022-12-29T16:08:18.556Z,8.30
2022-12-29T16:10:45.325Z,8.30
2022-12-29T16:13:12.054Z,8.30
2022-12-29T16:15:38.795Z,8.30
2022-12-29T16:18:05.540Z,8.20
2022-12-29T16:20:32.716Z,8.20
2022-12-29T16:22:59.474Z,8.10
2022-12-29T16:25:26.243Z,8.10
2022-12-29T16:27:53.159Z,8.10
2022-12-29T16:30:19.877Z,8.00
2022-12-29T16:32:46.779Z,8.00
2022-12-29T16:35:13.509Z,8.00
2022-12-29T16:37:40.580Z,7.90
2022-12-29T16:40:07.414Z,7.90
2022-12-29T16:42:34.162Z,7.90
2022-12-29T16:45:00.878Z,7.90
2022-12-29T16:47:27.667Z,7.90
2022-12-29T16:49:54.534Z,8.00
2022-12-29T16:52:21.288Z,7.90
2022-12-29T16:54:48.011Z,7.90
2022-12-29T16:57:14.680Z,7.90
2022-12-29T16:59:43.464Z,7.80
2022-12-29T17:02:10.475Z,7.80
2022-12-29T17:04:37.327Z,7.80
2022-12-29T17:07:04.034Z,7.70
2022-12-29T17:09:31.714Z,7.70
2022-12-29T17:12:05.436Z,7.70
2022-12-29T17:14:37.466Z,7.70
2022-12-29T17:17:04.221Z,7.70
2022-12-29T17:19:30.967Z,7.60
2022-12-29T17:21:57.654Z,7.60
2022-12-29T17:24:24.358Z,7.60
2022-12-29T17:26:51.082Z,7.50
2022-12-29T17:29:17.828Z,7.60
2022-12-29T17:31:44.645Z,7.50
2022-12-29T17:34:11.387Z,7.50
2022-12-29T17:36:38.196Z,7.50
2022-12-29T17:39:04.920Z,7.50
2022-12-29T17:41:31.648Z,7.40
2022-12-29T17:43:58.592Z,7.40
2022-12-29T17:46:25.345Z,7.40
2022-12-29T17:48:53.981Z,7.40
2022-12-29T17:51:21.010Z,7.40
2022-12-29T17:53:47.918Z,7.40
2022-12-29T17:56:14.669Z,7.30
2022-12-29T17:58:41.360Z,7.30
2022-12-29T18:01:08.125Z,7.30
2022-12-29T18:03:35.250Z,7.20
2022-12-29T18:06:02.215Z,7.20
2022-12-29T18:08:29.520Z,7.20
2022-12-29T18:10:56.313Z,7.20
2022-12-29T18:13:23.116Z,7.10
2022-12-29T18:15:50.414Z,7.10
2022-12-29T18:18:17.771Z,7.10
2022-12-29T18:20:44.486Z,7.10
2022-12-29T18:23:11.208Z,7.10
2022-12-29T18:25:37.984Z,7.00
2022-12-29T18:28:04.694Z,7.00
2022-12-29T18:30:31.458Z,7.00
2022-12-29T18:32:58.134Z,7.00
2022-12-29T18:35:24.834Z,7.00
2022-12-29T18:37:51.551Z,7.00
2022-12-29T18:40:19.563Z,7.00
2022-12-29T18:42:46.335Z,6.90
2022-12-29T18:45:13.037Z,6.90
2022-12-29T18:47:39.752Z,6.90
2022-12-29T18:50:06.500Z,6.90
2022-12-29T18:52:33.200Z,6.90
2022-12-29T18:54:59.895Z,6.80
2022-12-29T18:57:30.574Z,6.90
2022-12-29T18:59:57.405Z,6.80
2022-12-29T19:02:25.845Z,6.80
2022-12-29T19:04:53.456Z,6.80
2022-12-29T19:07:21.796Z,6.80
2022-12-29T19:09:48.479Z,6.80
2022-12-29T19:12:15.203Z,6.80
2022-12-29T19:14:41.942Z,6.80
2022-12-29T19:17:08.683Z,6.80
2022-12-29T19:19:35.407Z,6.70
2022-12-29T19:22:02.094Z,6.70
2022-12-29T19:24:28.846Z,6.70
2022-12-29T19:26:55.561Z,6.70
2022-12-29T19:29:22.358Z,6.70
2022-12-29T19:31:49.176Z,6.70
2022-12-29T19:34:16.053Z,6.70
2022-12-29T19:36:42.861Z,6.70
2022-12-29T19:39:09.550Z,6.70
2022-12-29T19:41:36.232Z,6.70
2022-12-29T19:44:03.026Z,6.70
2022-12-29T19:46:29.793Z,6.70
2022-12-29T19:48:59.039Z,6.70
2022-12-29T19:51:26.574Z,6.70
2022-12-29T19:53:53.345Z,6.70
2022-12-29T19:56:20.127Z,6.70
2022-12-29T19:58:47.761Z,6.70
2022-12-29T20:01:14.784Z,6.70
2022-12-29T20:03:41.736Z,6.60
2022-12-29T20:06:08.450Z,6.70
2022-12-29T20:08:35.145Z,6.70
2022-12-29T20:11:01.870Z,6.60
2022-12-29T20:13:28.597Z,6.60
2022-12-29T20:15:55.301Z,6.60
2022-12-29T20:18:26.944Z,6.60
2022-12-29T20:20:55.981Z,6.60
2022-12-29T20:23:22.700Z,6.50
2022-12-29T20:25:49.436Z,6.50
2022-12-29T20:28:17.012Z,6.50
2022-12-29T20:30:43.881Z,6.50
2022-12-29T20:33:10.579Z,6.50
2022-12-29T20:35:37.337Z,6.50
2022-12-29T20:38:04.113Z,6.50
2022-12-29T20:40:30.795Z,6.50
2022-12-29T20:42:57.543Z,6.50
2022-12-29T20:45:24.416Z,6.40
2022-12-29T20:47:51.336Z,6.40
2022-12-29T20:50:18.145Z,6.40
2022-12-29T20:52:44.950Z,6.40
2022-12-29T20:55:15.650Z,6.40
2022-12-29T21:00:33.688Z,6.40
2022-12-29T21:03:01.012Z,6.40
2022-12-29T21:05:27.918Z,6.40
2022-12-29T21:07:54.584Z,6.30
2022-12-29T21:10:21.295Z,6.30
2022-12-29T21:12:48.689Z,6.30
2022-12-29T21:15:15.689Z,6.30
2022-12-29T21:17:42.477Z,6.30
2022-12-29T21:20:09.149Z,6.20
2022-12-29T21:22:35.813Z,6.20
2022-12-29T21:25:02.569Z,6.20
2022-12-29T21:27:29.317Z,6.20
2022-12-29T21:29:57.987Z,6.20
2022-12-29T21:32:24.813Z,6.20
2022-12-29T21:34:51.482Z,6.20
2022-12-29T21:37:23.395Z,6.10
2022-12-29T21:39:50.537Z,6.20
2022-12-29T21:42:17.204Z,6.10
2022-12-29T21:45:02.669Z,6.10
2022-12-29T21:47:49.359Z,6.10
2022-12-29T21:50:16.112Z,6.10
2022-12-29T21:52:42.805Z,6.10
2022-12-29T21:55:09.566Z,6.10
2022-12-29T21:57:54.927Z,6.10
2022-12-29T22:00:40.337Z,6.20
2022-12-29T22:03:25.991Z,6.10
2022-12-29T22:06:11.585Z,6.10
2022-12-29T22:08:57.267Z,6.10
2022-12-29T22:11:42.680Z,6.10
2022-12-29T22:14:09.501Z,6.10
2022-12-29T22:16:36.223Z,6.00
2022-12-29T22:19:02.924Z,6.00
2022-12-29T22:21:29.856Z,6.00
2022-12-29T22:23:56.633Z,6.00
2022-12-29T22:26:23.369Z,6.00
2022-12-29T22:28:52.071Z,6.00
2022-12-29T22:31:18.845Z,5.90
2022-12-29T22:33:45.676Z,6.00
2022-12-29T22:36:12.555Z,5.90
2022-12-29T22:38:39.318Z,5.90
2022-12-29T22:41:06.073Z,5.90
2022-12-29T22:43:32.821Z,6.00
2022-12-29T22:45:59.615Z,6.00
2022-12-29T22:48:26.377Z,5.90
2022-12-29T22:50:53.090Z,6.00
2022-12-29T22:53:19.788Z,5.90
2022-12-29T22:55:46.481Z,5.90
2022-12-29T22:58:13.516Z,5.90
2022-12-29T23:00:40.204Z,5.90
2022-12-29T23:03:07.124Z,5.90
2022-12-29T23:05:34.069Z,5.90
2022-12-29T23:08:00.751Z,5.90
2022-12-29T23:10:27.495Z,5.90
2022-12-29T23:12:54.507Z,5.90
2022-12-29T23:15:21.241Z,5.90
2022-12-29T23:17:48.145Z,5.90
2022-12-29T23:20:15.027Z,5.90
2022-12-29T23:22:41.746Z,5.90
2022-12-29T23:25:08.553Z,5.90
2022-12-29T23:27:35.230Z,5.90
2022-12-29T23:30:01.928Z,5.90
2022-12-29T23:32:28.685Z,5.90
2022-12-29T23:34:55.450Z,5.90
2022-12-29T23:37:22.173Z,5.90
2022-12-29T23:39:48.875Z,5.90
2022-12-29T23:42:15.672Z,5.90
2022-12-29T23:44:42.742Z,5.90
2022-12-29T23:47:09.644Z,5.90
2022-12-29T23:49:36.541Z,5.90
2022-12-29T23:52:03.263Z,5.80
2022-12-29T23:54:30.020Z,5.90
2022-12-29T23:56:56.756Z,5.80
2022-12-29T23:59:23.563Z,5.90
